Time;durP1;ratioP1;P1;durP2;ratioP2;P2;SDS_P1;SDS_P2;PMS_P1;PMS_P2;Temp;Humidity;BMP_temperature;BMP_pressure;BME280_temperature;BME280_humidity;BME280_pressure;Samples;Min_cycle;Max_cycle;Signal;HPM_P1;HPM_P2
2023/10/04 00:00:19;;;;;;;;;;;;;;;;;;5032852;28;20275;-69
2023/10/04 00:02:45;;;;;;;;;;;;;;;;;;5033973;28;19921;-71
2023/10/04 00:05:14;;;;;;;;;;;;;;;;;;5033768;28;20363;-70
2023/10/04 00:07:41;;;;;;;;;;;;;;;;;;5032371;28;19921;-71
2023/10/04 00:10:07;;;;;;;;;;;;;;;;;;5033580;28;19928;-69
2023/10/04 00:12:33;;;;;;;;;;;;;;;;;;5033519;28;20059;-70
2023/10/04 00:14:59;;;;;;;;;;;;;;;;;;5033693;28;19960;-70
2023/10/04 00:17:25;;;;;;;;;;;;;;;;;;5030886;28;19921;-71
2023/10/04 00:19:51;;;;;;;;;;;;;;;;;;5033691;28;19936;-70
2023/10/04 00:22:19;;;;;;;;;;;;;;;;;;5033488;28;20367;-69
2023/10/04 00:24:44;;;;;;;;;;;;;;;;;;5033701;28;20027;-70
2023/10/04 00:27:10;;;;;;;;;;;;;;;;;;5033599;28;19928;-70
2023/10/04 00:29:36;;;;;;;;;;;;;;;;;;5033502;28;19924;-70
2023/10/04 00:32:04;;;;;;;;;;;;;;;;;;5015541;28;19935;-70
2023/10/04 00:34:30;;;;;;;;;;;;;;;;;;5031951;28;20429;-70
2023/10/04 00:36:56;;;;;;;;;;;;;;;;;;5032944;28;19925;-70
2023/10/04 00:39:22;;;;;;;;;;;;;;;;;;5031906;28;20429;-71
2023/10/04 00:41:51;;;;;;;;;;;;;;;;;;5033023;28;19929;-70
2023/10/04 00:44:17;;;;;;;;;;;;;;;;;;5033029;28;20276;-70
2023/10/04 00:46:45;;;;;;;;;;;;;;;;;;5031834;28;19929;-70
2023/10/04 00:49:11;;;;;;;;;;;;;;;;;;5033227;28;19956;-70
2023/10/04 00:51:37;;;;;;;;;;;;;;;;;;5031618;28;20504;-70
2023/10/04 00:54:07;;;;;;;;;;;;;;;;;;5031594;28;19947;-69
2023/10/04 00:56:33;;;;;;;;;;;;;;;;;;5031459;28;19932;-70
2023/10/04 00:58:59;;;;;;;;;;;;;;;;;;5032857;28;19925;-70
2023/10/04 01:01:25;;;;;;;;;;;;;;;;;;5032616;28;19928;-70
2023/10/04 01:03:51;;;;;;;;;;;;;;;;;;5031139;28;19932;-70
2023/10/04 01:06:19;;;;;;;;;;;;;;;;;;5031401;28;19922;-70
2023/10/04 01:08:47;;;;;;;;;;;;;;;;;;5032454;28;19921;-70
2023/10/04 01:11:13;;;;;;;;;;;;;;;;;;5032704;28;19929;-70
2023/10/04 01:13:40;;;;;;;;;;;;;;;;;;5032416;28;19952;-70
2023/10/04 01:16:09;;;;;;;;;;;;;;;;;;5032751;28;19925;-70
2023/10/04 01:18:35;;;;;;;;;;;;;;;;;;5030967;28;19925;-71
2023/10/04 01:21:01;;;;;;;;;;;;;;;;;;5032281;28;19983;-69
2023/10/04 01:23:28;;;;;;;;;;;;;;;;;;5032150;28;19925;-70
2023/10/04 01:25:54;;;;;;;;;;;;;;;;;;5030779;28;20011;-70
2023/10/04 01:28:30;;;;;;;;;;;;;;;;;;5031995;28;20352;-69
2023/10/04 01:30:56;;;;;;;;;;;;;;;;;;5032510;28;19925;-70
2023/10/04 01:33:22;;;;;;;;;;;;;;;;;;5030827;28;19925;-69
2023/10/04 01:35:53;;;;;;;;;;;;;;;;;;5032482;28;20316;-70
2023/10/04 01:38:24;;;;;;;;;;;;;;;;;;5032120;28;20302;-70
2023/10/04 01:40:50;;;;;;;;;;;;;;;;;;5032420;28;19973;-69
2023/10/04 01:43:16;;;;;;;;;;;;;;;;;;5032287;28;19965;-70
2023/10/04 01:45:44;;;;;;;;;;;;;;;;;;5031985;28;20618;-70
2023/10/04 01:48:10;;;;;;;;;;;;;;;;;;5032188;28;19998;-70
2023/10/04 01:50:36;;;;;;;;;;;;;;;;;;5032229;28;19956;-70
2023/10/04 01:53:02;;;;;;;;;;;;;;;;;;5031904;28;19925;-69
2023/10/04 01:55:28;;;;;;;;;;;;;;;;;;5030525;28;19928;-70
2023/10/04 01:57:54;;;;;;;;;;;;;;;;;;5031956;28;19925;-70
2023/10/04 02:00:22;;;;;;;;;;;;;;;;;;5031994;28;19928;-70
2023/10/04 02:02:48;;;;;;;;;;;;;;;;;;5032060;28;19928;-70
2023/10/04 02:05:26;;;;;;;;;;;;;;;;;;5030656;28;19925;-70
2023/10/04 02:07:53;;;;;;;;;;;;;;;;;;5031852;28;19921;-70
2023/10/04 02:10:19;;;;;;;;;;;;;;;;;;5031366;28;19976;-68
2023/10/04 02:12:45;;;;;;;;;;;;;;;;;;5031667;28;20506;-70
2023/10/04 02:15:15;;;;;;;;;;;;;;;;;;5030242;28;20367;-70
2023/10/04 02:17:40;;;;;;;;;;;;;;;;;;5030185;28;19983;-70
2023/10/04 02:20:09;;;;;;;;;;;;;;;;;;5031813;28;19925;-70
2023/10/04 02:22:36;;;;;;;;;;;;;;;;;;5031873;28;19925;-70
2023/10/04 02:25:06;;;;;;;;;;;;;;;;;;5031847;28;19972;-70
2023/10/04 02:27:31;;;;;;;;;;;;;;;;;;5031806;28;19921;-70
2023/10/04 02:29:57;;;;;;;;;;;;;;;;;;5030292;28;19921;-70
2023/10/04 02:32:25;;;;;;;;;;;;;;;;;;5031871;28;19921;-70
2023/10/04 02:34:53;;;;;;;;;;;;;;;;;;5031415;28;20011;-69
2023/10/04 02:37:19;;;;;;;;;;;;;;;;;;5031658;28;19983;-70
2023/10/04 02:39:46;;;;;;;;;;;;;;;;;;5031513;28;19929;-70
2023/10/04 02:42:12;;;;;;;;;;;;;;;;;;5035009;28;20003;-69
2023/10/04 02:44:38;;;;;;;;;;;;;;;;;;5035527;28;19948;-70
2023/10/04 02:47:07;;;;;;;;;;;;;;;;;;5035398;28;19932;-70
2023/10/04 02:49:33;;;;;;;;;;;;;;;;;;5035065;28;19925;-70
2023/10/04 02:51:59;;;;;;;;;;;;;;;;;;5035025;28;19951;-70
2023/10/04 02:54:27;;;;;;;;;;;;;;;;;;5035246;28;19925;-70
2023/10/04 02:56:53;;;;;;;;;;;;;;;;;;5033521;28;19924;-70
2023/10/04 02:59:20;;;;;;;;;;;;;;;;;;5035252;28;19925;-70
2023/10/04 03:01:45;;;;;;;;;;;;;;;;;;5035026;28;20347;-69
2023/10/04 03:04:14;;;;;;;;;;;;;;;;;;5035135;28;20564;-70
2023/10/04 03:06:40;;;;;;;;;;;;;;;;;;5034947;28;19975;-69
2023/10/04 03:09:06;;;;;;;;;;;;;;;;;;5034670;28;19921;-70
2023/10/04 03:11:32;;;;;;;;;;;;;;;;;;5034946;28;19929;-69
2023/10/04 03:13:59;;;;;;;;;;;;;;;;;;5034450;28;19940;-70
2023/10/04 03:16:25;;;;;;;;;;;;;;;;;;5046315;28;19921;-69
2023/10/04 03:18:51;;;;;;;;;;;;;;;;;;5032391;28;20379;-70
2023/10/04 03:21:20;;;;;;;;;;;;;;;;;;5033980;28;19924;-70
2023/10/04 03:23:46;;;;;;;;;;;;;;;;;;5033894;28;19925;-70
2023/10/04 03:26:12;;;;;;;;;;;;;;;;;;5033675;28;19925;-70
2023/10/04 03:28:38;;;;;;;;;;;;;;;;;;5032218;28;19921;-69
2023/10/04 03:31:04;;;;;;;;;;;;;;;;;;5033577;28;19948;-70
2023/10/04 03:33:35;;;;;;;;;;;;;;;;;;5033349;28;20591;-70
2023/10/04 03:36:04;;;;;;;;;;;;;;;;;;5032004;28;19921;-70
2023/10/04 03:38:33;;;;;;;;;;;;;;;;;;5032414;28;20271;-70
2023/10/04 03:40:59;;;;;;;;;;;;;;;;;;5033253;28;20398;-70
2023/10/04 03:43:25;;;;;;;;;;;;;;;;;;5032146;28;19925;-70
2023/10/04 03:45:51;;;;;;;;;;;;;;;;;;5032187;28;20394;-70
2023/10/04 03:48:17;;;;;;;;;;;;;;;;;;5015622;28;20412;-70
2023/10/04 03:50:45;;;;;;;;;;;;;;;;;;5033861;28;20469;-69
2023/10/04 03:53:11;;;;;;;;;;;;;;;;;;5033281;28;19932;-70
2023/10/04 03:55:37;;;;;;;;;;;;;;;;;;5033095;28;19925;-70
2023/10/04 03:58:04;;;;;;;;;;;;;;;;;;5031849;28;19960;-69
2023/10/04 04:00:31;;;;;;;;;;;;;;;;;;5032034;28;19933;-70
2023/10/04 04:02:57;;;;;;;;;;;;;;;;;;5015241;28;19928;-70
2023/10/04 04:05:23;;;;;;;;;;;;;;;;;;5033429;28;19964;-69
2023/10/04 04:07:49;;;;;;;;;;;;;;;;;;5033117;28;19948;-69
2023/10/04 04:10:18;;;;;;;;;;;;;;;;;;5033211;28;20287;-69
2023/10/04 04:12:46;;;;;;;;;;;;;;;;;;5032381;28;19932;-69
2023/10/04 04:15:12;;;;;;;;;;;;;;;;;;5033691;28;19925;-70
2023/10/04 04:17:39;;;;;;;;;;;;;;;;;;5033376;28;19948;-69
2023/10/04 04:20:23;;;;;;;;;;;;;;;;;;5033016;28;19925;-71
2023/10/04 04:22:50;;;;;;;;;;;;;;;;;;5033520;28;20028;-71
2023/10/04 04:25:17;;;;;;;;;;;;;;;;;;5033893;28;19970;-69
2023/10/04 04:27:45;;;;;;;;;;;;;;;;;;5032042;28;19921;-70
2023/10/04 04:30:18;;;;;;;;;;;;;;;;;;5033578;28;20359;-71
2023/10/04 04:32:44;;;;;;;;;;;;;;;;;;5033366;28;19970;-70
2023/10/04 04:35:15;;;;;;;;;;;;;;;;;;5015096;28;20004;-70
2023/10/04 04:37:40;;;;;;;;;;;;;;;;;;5032518;28;20391;-70
2023/10/04 04:40:09;;;;;;;;;;;;;;;;;;5032334;28;19990;-70
2023/10/04 04:42:43;;;;;;;;;;;;;;;;;;5031320;28;19921;-69
2023/10/04 04:45:25;;;;;;;;;;;;;;;;;;5014585;28;19931;-69
2023/10/04 04:47:51;;;;;;;;;;;;;;;;;;5030611;28;20394;-70
2023/10/04 04:50:19;;;;;;;;;;;;;;;;;;5032044;28;19920;-70
2023/10/04 04:52:45;;;;;;;;;;;;;;;;;;5031851;28;20326;-70
2023/10/04 04:55:11;;;;;;;;;;;;;;;;;;5032295;28;19925;-70
2023/10/04 04:57:38;;;;;;;;;;;;;;;;;;5031962;28;19927;-70
2023/10/04 05:00:30;;;;;;;;;;;;;;;;;;5031878;28;19925;-70
2023/10/04 05:02:49;;;;;;;;;;;;;;;;;;5031328;28;19927;-70
2023/10/04 05:05:15;;;;;;;;;;;;;;;;;;5030386;28;19925;-70
2023/10/04 05:07:42;;;;;;;;;;;;;;;;;;5032582;28;19925;-70
2023/10/04 05:10:11;;;;;;;;;;;;;;;;;;5032475;28;20569;-70
2023/10/04 05:12:37;;;;;;;;;;;;;;;;;;5032621;28;19968;-70
2023/10/04 05:15:07;;;;;;;;;;;;;;;;;;5030963;28;19929;-70
2023/10/04 05:17:34;;;;;;;;;;;;;;;;;;5032246;28;19976;-70
2023/10/04 05:20:00;;;;;;;;;;;;;;;;;;5032381;28;19948;-71
2023/10/04 05:22:26;;;;;;;;;;;;;;;;;;5032403;28;20378;-70
2023/10/04 05:24:52;;;;;;;;;;;;;;;;;;5030930;28;19925;-70
2023/10/04 05:27:18;;;;;;;;;;;;;;;;;;5032471;28;19932;-69
2023/10/04 05:29:44;;;;;;;;;;;;;;;;;;5032430;28;20044;-71
2023/10/04 05:32:10;;;;;;;;;;;;;;;;;;5031001;28;20291;-71
2023/10/04 05:34:36;;;;;;;;;;;;;;;;;;5030802;28;19932;-70
2023/10/04 05:37:02;;;;;;;;;;;;;;;;;;5032231;28;19925;-70
2023/10/04 05:39:28;;;;;;;;;;;;;;;;;;5030940;28;19948;-70
2023/10/04 05:41:54;;;;;;;;;;;;;;;;;;5031166;28;19931;-70
2023/10/04 05:44:20;;;;;;;;;;;;;;;;;;5014283;28;19928;-70
2023/10/04 05:46:46;;;;;;;;;;;;;;;;;;5032045;28;19921;-71
2023/10/04 05:49:12;;;;;;;;;;;;;;;;;;5031718;28;19925;-70
2023/10/04 05:51:38;;;;;;;;;;;;;;;;;;5030757;28;20351;-71
2023/10/04 05:54:05;;;;;;;;;;;;;;;;;;5031740;28;19956;-70
2023/10/04 05:56:31;;;;;;;;;;;;;;;;;;5031549;28;19932;-70
2023/10/04 05:59:00;;;;;;;;;;;;;;;;;;5031546;28;19929;-70
2023/10/04 06:01:28;;;;;;;;;;;;;;;;;;5031435;28;20217;-70
2023/10/04 06:03:55;;;;;;;;;;;;;;;;;;5030304;28;19955;-70
2023/10/04 06:06:21;;;;;;;;;;;;;;;;;;5032011;28;19925;-70
2023/10/04 06:08:47;;;;;;;;;;;;;;;;;;5031425;28;19927;-69
2023/10/04 06:11:13;;;;;;;;;;;;;;;;;;5031850;28;20338;-71
2023/10/04 06:13:38;;;;;;;;;;;;;;;;;;5031575;28;19928;-69
2023/10/04 06:16:04;;;;;;;;;;;;;;;;;;5034678;28;20008;-70
2023/10/04 06:18:30;;;;;;;;;;;;;;;;;;5034332;28;19932;-71
2023/10/04 06:20:56;;;;;;;;;;;;;;;;;;5034395;28;19933;-70
2023/10/04 06:23:22;;;;;;;;;;;;;;;;;;5049814;22;19981;-63
2023/10/04 06:25:48;;;;;;;;;;;;;;;;;;5043447;28;19928;-64
2023/10/04 06:28:14;;;;;;;;;;;;;;;;;;5055180;28;20363;-64
2023/10/04 06:30:40;;;;;;;;;;;;;;;;;;5054357;28;20008;-64
2023/10/04 06:33:06;;;;;;;;;;;;;;;;;;5055208;28;19921;-64
2023/10/04 06:35:32;;;;;;;;;;;;;;;;;;5055379;28;19925;-64
2023/10/04 06:37:58;;;;;;;;;;;;;;;;;;5055718;28;19927;-64
2023/10/04 06:40:24;;;;;;;;;;;;;;;;;;5053317;28;19928;-64
2023/10/04 06:42:50;;;;;;;;;;;;;;;;;;5055399;28;19921;-64
2023/10/04 06:45:16;;;;;;;;;;;;;;;;;;5037390;28;20018;-64
2023/10/04 06:47:43;;;;;;;;;;;;;;;;;;5055606;28;19928;-65
2023/10/04 06:50:13;;;;;;;;;;;;;;;;;;5055608;28;20289;-64
2023/10/04 06:52:39;;;;;;;;;;;;;;;;;;5045794;28;19921;-63
2023/10/04 06:55:08;;;;;;;;;;;;;;;;;;5035729;28;19925;-64
2023/10/04 06:57:34;;;;;;;;;;;;;;;;;;5035879;28;20430;-63
2023/10/04 07:00:00;;;;;;;;;;;;;;;;;;5055045;28;20003;-64
2023/10/04 07:02:26;;;;;;;;;;;;;;;;;;5055279;28;19920;-64
2023/10/04 07:04:52;;;;;;;;;;;;;;;;;;5055217;28;20443;-64
2023/10/04 07:07:18;;;;;;;;;;;;;;;;;;5055497;28;20015;-64
2023/10/04 07:09:44;;;;;;;;;;;;;;;;;;5055186;28;19920;-64
2023/10/04 07:12:10;;;;;;;;;;;;;;;;;;5054966;28;19924;-63
2023/10/04 07:14:36;;;;;;;;;;;;;;;;;;5054954;28;19982;-63
2023/10/04 07:17:02;;;;;;;;;;;;;;;;;;5055143;28;20358;-64
2023/10/04 07:19:29;;;;;;;;;;;;;;;;;;5053673;28;19921;-64
2023/10/04 07:21:55;;;;;;;;;;;;;;;;;;5055320;28;19920;-64
2023/10/04 07:24:21;;;;;;;;;;;;;;;;;;5054545;28;20263;-63
2023/10/04 07:26:47;;;;;;;;;;;;;;;;;;5054534;28;19932;-64
2023/10/04 07:29:12;;;;;;;;;;;;;;;;;;5055052;28;20386;-64
2023/10/04 07:31:39;;;;;;;;;;;;;;;;;;5054203;28;19921;-64
2023/10/04 07:34:05;;;;;;;;;;;;;;;;;;5053293;28;19935;-64
2023/10/04 07:36:31;;;;;;;;;;;;;;;;;;5054604;28;20263;-64
2023/10/04 07:38:57;;;;;;;;;;;;;;;;;;5054644;28;20321;-65
2023/10/04 07:41:23;;;;;;;;;;;;;;;;;;5053168;28;19971;-65
2023/10/04 07:43:49;;;;;;;;;;;;;;;;;;5053286;28;20048;-64
2023/10/04 07:46:16;;;;;;;;;;;;;;;;;;5054539;28;19924;-64
2023/10/04 07:48:42;;;;;;;;;;;;;;;;;;5054875;28;19927;-64
2023/10/04 07:51:08;;;;;;;;;;;;;;;;;;5054671;28;20401;-64
2023/10/04 07:53:35;;;;;;;;;;;;;;;;;;5037661;28;19932;-64
2023/10/04 07:56:01;;;;;;;;;;;;;;;;;;5034589;28;19925;-63
2023/10/04 07:58:27;;;;;;;;;;;;;;;;;;5034729;28;19921;-63
2023/10/04 08:00:53;;;;;;;;;;;;;;;;;;5034786;28;19925;-64
2023/10/04 08:03:19;;;;;;;;;;;;;;;;;;5034284;28;19921;-64
2023/10/04 08:05:45;;;;;;;;;;;;;;;;;;5033448;28;19925;-64
2023/10/04 08:08:11;;;;;;;;;;;;;;;;;;5033777;28;20377;-66
2023/10/04 08:10:36;;;;;;;;;;;;;;;;;;5032237;28;19957;-64
2023/10/04 08:13:03;;;;;;;;;;;;;;;;;;5033656;28;19970;-64
2023/10/04 08:15:29;;;;;;;;;;;;;;;;;;5033744;28;19921;-64
2023/10/04 08:17:55;;;;;;;;;;;;;;;;;;5033842;28;19929;-64
2023/10/04 08:20:21;;;;;;;;;;;;;;;;;;5034120;28;20322;-63
2023/10/04 08:22:47;;;;;;;;;;;;;;;;;;5034312;28;20290;-63
2023/10/04 08:25:13;;;;;;;;;;;;;;;;;;5033886;28;19932;-64
2023/10/04 08:27:39;;;;;;;;;;;;;;;;;;5034056;28;19921;-64
2023/10/04 08:30:05;;;;;;;;;;;;;;;;;;5032611;28;19928;-64
2023/10/04 08:32:31;;;;;;;;;;;;;;;;;;5034062;28;20020;-64
2023/10/04 08:34:57;;;;;;;;;;;;;;;;;;5033732;28;19922;-64
2023/10/04 08:37:24;;;;;;;;;;;;;;;;;;5033599;28;19952;-64
2023/10/04 08:39:49;;;;;;;;;;;;;;;;;;5032884;28;19971;-64
2023/10/04 08:42:16;;;;;;;;;;;;;;;;;;5053209;28;19921;-64
2023/10/04 08:44:41;;;;;;;;;;;;;;;;;;5053760;28;19928;-64
2023/10/04 08:47:08;;;;;;;;;;;;;;;;;;5053350;28;19950;-63
2023/10/04 08:49:34;;;;;;;;;;;;;;;;;;5053251;28;20432;-63
2023/10/04 08:52:01;;;;;;;;;;;;;;;;;;5030912;28;20005;-63
2023/10/04 08:54:27;;;;;;;;;;;;;;;;;;5033620;28;19921;-64
2023/10/04 08:56:54;;;;;;;;;;;;;;;;;;5033261;28;19935;-64
2023/10/04 08:59:20;;;;;;;;;;;;;;;;;;5033320;28;20406;-64
2023/10/04 09:01:46;;;;;;;;;;;;;;;;;;5033445;28;19921;-63
2023/10/04 09:04:13;;;;;;;;;;;;;;;;;;5033342;28;19932;-64
2023/10/04 09:06:42;;;;;;;;;;;;;;;;;;5031810;28;19921;-64
2023/10/04 09:09:11;;;;;;;;;;;;;;;;;;5033533;28;19927;-63
2023/10/04 09:11:37;;;;;;;;;;;;;;;;;;5033363;28;19921;-64
2023/10/04 09:14:03;;;;;;;;;;;;;;;;;;5033430;28;19921;-63
2023/10/04 09:16:29;;;;;;;;;;;;;;;;;;5032892;28;20455;-63
2023/10/04 09:18:55;;;;;;;;;;;;;;;;;;5031653;28;19920;-63
2023/10/04 09:21:23;;;;;;;;;;;;;;;;;;5032859;28;20325;-63
2023/10/04 09:23:48;;;;;;;;;;;;;;;;;;5032796;28;19933;-64
2023/10/04 09:26:14;;;;;;;;;;;;;;;;;;5032943;28;19977;-65
2023/10/04 09:28:40;;;;;;;;;;;;;;;;;;5032910;28;19927;-65
2023/10/04 09:31:06;;;;;;;;;;;;;;;;;;5032322;28;20056;-65
2023/10/04 09:33:34;;;;;;;;;;;;;;;;;;5031499;28;19987;-64
2023/10/04 09:36:00;;;;;;;;;;;;;;;;;;5032616;28;19932;-62
2023/10/04 09:38:25;;;;;;;;;;;;;;;;;;5032912;28;19925;-62
2023/10/04 09:40:51;;;;;;;;;;;;;;;;;;5031356;28;19925;-63
2023/10/04 09:43:17;;;;;;;;;;;;;;;;;;5032403;28;19921;-64
2023/10/04 09:45:43;;;;;;;;;;;;;;;;;;5031366;28;19927;-64
2023/10/04 09:48:09;;;;;;;;;;;;;;;;;;5031242;28;20023;-64
2023/10/04 09:50:36;;;;;;;;;;;;;;;;;;5032065;28;19928;-64
2023/10/04 09:53:01;;;;;;;;;;;;;;;;;;5031465;28;19921;-64
2023/10/04 09:55:28;;;;;;;;;;;;;;;;;;5031903;28;19928;-64
2023/10/04 09:57:54;;;;;;;;;;;;;;;;;;5031985;28;19925;-65
2023/10/04 10:00:22;;;;;;;;;;;;;;;;;;5031506;28;19927;-64
2023/10/04 10:02:48;;;;;;;;;;;;;;;;;;5031500;28;19936;-64
2023/10/04 10:05:19;;;;;;;;;;;;;;;;;;5030309;28;19940;-64
2023/10/04 10:07:45;;;;;;;;;;;;;;;;;;5029953;28;19921;-63
2023/10/04 10:10:12;;;;;;;;;;;;;;;;;;5029896;28;19971;-65
2023/10/04 10:12:38;;;;;;;;;;;;;;;;;;5031468;28;20005;-64
2023/10/04 10:15:04;;;;;;;;;;;;;;;;;;5031696;28;20449;-64
2023/10/04 10:17:30;;;;;;;;;;;;;;;;;;5030359;28;19933;-64
2023/10/04 10:19:56;;;;;;;;;;;;;;;;;;5030924;28;19944;-64
2023/10/04 10:22:22;;;;;;;;;;;;;;;;;;5032263;28;20325;-65
2023/10/04 10:24:51;;;;;;;;;;;;;;;;;;5030593;28;19991;-64
2023/10/04 10:27:17;;;;;;;;;;;;;;;;;;5031965;28;19960;-64
2023/10/04 10:29:43;;;;;;;;;;;;;;;;;;5030728;28;19921;-64
2023/10/04 10:32:09;;;;;;;;;;;;;;;;;;5032150;28;20527;-64
2023/10/04 10:34:35;;;;;;;;;;;;;;;;;;5032264;28;19932;-64
2023/10/04 10:37:01;;;;;;;;;;;;;;;;;;5031923;28;19925;-64
2023/10/04 10:39:30;;;;;;;;;;;;;;;;;;5030678;28;20283;-64
2023/10/04 10:41:56;;;;;;;;;;;;;;;;;;5032076;28;20282;-64
2023/10/04 10:44:34;;;;;;;;;;;;;;;;;;5032109;28;19932;-65
2023/10/04 10:47:00;;;;;;;;;;;;;;;;;;5032222;28;19928;-64
2023/10/04 10:49:28;;;;;;;;;;;;;;;;;;5031300;28;21273;-65
2023/10/04 10:51:54;;;;;;;;;;;;;;;;;;5031978;28;19921;-64
2023/10/04 10:54:20;;;;;;;;;;;;;;;;;;5031942;28;20363;-63
2023/10/04 10:56:46;;;;;;;;;;;;;;;;;;5016619;28;20000;-64
2023/10/04 10:59:12;;;;;;;;;;;;;;;;;;5051467;28;19929;-64
2023/10/04 11:01:38;;;;;;;;;;;;;;;;;;5052690;28;19944;-64
2023/10/04 11:04:04;;;;;;;;;;;;;;;;;;5055524;28;19925;-64
2023/10/04 11:06:30;;;;;;;;;;;;;;;;;;5055402;28;20453;-64
2023/10/04 11:08:56;;;;;;;;;;;;;;;;;;5055328;28;20016;-64
2023/10/04 11:11:22;;;;;;;;;;;;;;;;;;5054010;28;19920;-64
2023/10/04 11:13:48;;;;;;;;;;;;;;;;;;5053561;28;19925;-64
2023/10/04 11:16:14;;;;;;;;;;;;;;;;;;5053377;28;19925;-64
2023/10/04 11:18:40;;;;;;;;;;;;;;;;;;5035192;28;19943;-64
2023/10/04 11:21:06;;;;;;;;;;;;;;;;;;5033931;28;19956;-64
2023/10/04 11:23:33;;;;;;;;;;;;;;;;;;5035010;28;20754;-64
2023/10/04 11:25:59;;;;;;;;;;;;;;;;;;5035281;28;19921;-64
2023/10/04 11:28:25;;;;;;;;;;;;;;;;;;5034934;28;19920;-64
2023/10/04 11:30:51;;;;;;;;;;;;;;;;;;5034945;28;19921;-64
2023/10/04 11:33:17;;;;;;;;;;;;;;;;;;5033543;28;19921;-64
2023/10/04 11:35:43;;;;;;;;;;;;;;;;;;5035046;28;19931;-64
2023/10/04 11:38:09;;;;;;;;;;;;;;;;;;5034857;28;20375;-63
2023/10/04 11:40:34;;;;;;;;;;;;;;;;;;5034930;28;19928;-63
2023/10/04 11:43:00;;;;;;;;;;;;;;;;;;5035022;28;20489;-63
2023/10/04 11:45:26;;;;;;;;;;;;;;;;;;5034729;28;19925;-64
2023/10/04 11:47:52;;;;;;;;;;;;;;;;;;5034897;28;19929;-63
2023/10/04 11:50:18;;;;;;;;;;;;;;;;;;5034694;28;19968;-64
2023/10/04 11:52:46;;;;;;;;;;;;;;;;;;5032870;28;19925;-63
2023/10/04 11:55:14;;;;;;;;;;;;;;;;;;5033799;28;19921;-65
2023/10/04 11:57:41;;;;;;;;;;;;;;;;;;5033422;28;20527;-64
2023/10/04 12:00:10;;;;;;;;;;;;;;;;;;5034006;28;19921;-64
2023/10/04 12:02:36;;;;;;;;;;;;;;;;;;5034455;28;19921;-64
2023/10/04 12:05:02;;;;;;;;;;;;;;;;;;5034150;28;19929;-64
2023/10/04 12:07:29;;;;;;;;;;;;;;;;;;5034349;28;20059;-63
2023/10/04 12:09:55;;;;;;;;;;;;;;;;;;5034233;28;19960;-65
2023/10/04 12:12:20;;;;;;;;;;;;;;;;;;5034422;28;19928;-64
2023/10/04 12:14:48;;;;;;;;;;;;;;;;;;5034239;28;20394;-64
2023/10/04 12:17:14;;;;;;;;;;;;;;;;;;5033998;28;20596;-64
2023/10/04 12:19:40;;;;;;;;;;;;;;;;;;5034071;28;19925;-64
2023/10/04 12:22:09;;;;;;;;;;;;;;;;;;5032953;28;19928;-64
2023/10/04 12:24:35;;;;;;;;;;;;;;;;;;5034091;28;19925;-64
2023/10/04 12:27:00;;;;;;;;;;;;;;;;;;5033006;28;20375;-64
2023/10/04 12:29:29;;;;;;;;;;;;;;;;;;5034172;28;20007;-64
2023/10/04 12:31:55;;;;;;;;;;;;;;;;;;5034042;28;19948;-64
2023/10/04 12:34:24;;;;;;;;;;;;;;;;;;5032371;28;20004;-63
2023/10/04 12:36:51;;;;;;;;;;;;;;;;;;5034092;28;20063;-63
2023/10/04 12:39:17;;;;;;;;;;;;;;;;;;5033647;28;20063;-63
2023/10/04 12:41:45;;;;;;;;;;;;;;;;;;5034084;28;20417;-64
2023/10/04 12:44:12;;;;;;;;;;;;;;;;;;5033823;28;19921;-64
2023/10/04 12:46:38;;;;;;;;;;;;;;;;;;5032579;28;19921;-64
2023/10/04 12:49:07;;;;;;;;;;;;;;;;;;5033606;28;20394;-64
2023/10/04 12:51:33;;;;;;;;;;;;;;;;;;5032212;28;19929;-63
2023/10/04 12:53:59;;;;;;;;;;;;;;;;;;5033406;28;19955;-64
2023/10/04 12:56:26;;;;;;;;;;;;;;;;;;5015553;28;20401;-64
2023/10/04 12:58:52;;;;;;;;;;;;;;;;;;5033604;28;19921;-63
2023/10/04 13:01:21;;;;;;;;;;;;;;;;;;5033391;28;19975;-64
2023/10/04 13:03:47;;;;;;;;;;;;;;;;;;5033486;28;19928;-64
2023/10/04 13:06:14;;;;;;;;;;;;;;;;;;5033071;28;19925;-64
2023/10/04 13:08:40;;;;;;;;;;;;;;;;;;5033508;28;19922;-63
2023/10/04 13:11:06;;;;;;;;;;;;;;;;;;5033214;28;19975;-63
2023/10/04 13:13:33;;;;;;;;;;;;;;;;;;5033191;28;19979;-64
2023/10/04 13:15:59;;;;;;;;;;;;;;;;;;5031441;28;19921;-64
2023/10/04 13:18:25;;;;;;;;;;;;;;;;;;5033136;28;19921;-64
2023/10/04 13:20:51;;;;;;;;;;;;;;;;;;5033070;28;20020;-64
2023/10/04 13:23:18;;;;;;;;;;;;;;;;;;5032854;28;20019;-63
2023/10/04 13:25:45;;;;;;;;;;;;;;;;;;5032474;28;19947;-63
2023/10/04 13:28:16;;;;;;;;;;;;;;;;;;5033042;28;19921;-64
2023/10/04 13:30:43;;;;;;;;;;;;;;;;;;5033055;28;19971;-64
2023/10/04 13:33:09;;;;;;;;;;;;;;;;;;5033110;28;19925;-64
2023/10/04 13:35:35;;;;;;;;;;;;;;;;;;5032520;28;19967;-64
2023/10/04 13:38:03;;;;;;;;;;;;;;;;;;5032553;28;20392;-64
2023/10/04 13:40:29;;;;;;;;;;;;;;;;;;5032696;28;19921;-64
2023/10/04 13:42:55;;;;;;;;;;;;;;;;;;5032568;28;19948;-64
2023/10/04 13:45:21;;;;;;;;;;;;;;;;;;5031248;28;20006;-65
2023/10/04 13:47:47;;;;;;;;;;;;;;;;;;5032555;28;19921;-64
2023/10/04 13:50:13;;;;;;;;;;;;;;;;;;5032681;28;20075;-64
2023/10/04 13:52:40;;;;;;;;;;;;;;;;;;5032344;28;19932;-64
2023/10/04 13:55:05;;;;;;;;;;;;;;;;;;5032777;28;20373;-65
2023/10/04 13:57:31;;;;;;;;;;;;;;;;;;5032504;28;19926;-65
2023/10/04 13:59:57;;;;;;;;;;;;;;;;;;5032523;28;19921;-65
2023/10/04 14:02:23;;;;;;;;;;;;;;;;;;5032248;28;19924;-64
2023/10/04 14:04:49;;;;;;;;;;;;;;;;;;5032737;28;19940;-64
2023/10/04 14:07:16;;;;;;;;;;;;;;;;;;5032572;28;20381;-64
2023/10/04 14:09:43;;;;;;;;;;;;;;;;;;5031105;28;19929;-64
2023/10/04 14:12:09;;;;;;;;;;;;;;;;;;5032126;28;20294;-64
2023/10/04 14:14:35;;;;;;;;;;;;;;;;;;5032471;28;19975;-64
2023/10/04 14:17:07;;;;;;;;;;;;;;;;;;5032082;28;19925;-63
2023/10/04 14:19:33;;;;;;;;;;;;;;;;;;5031013;28;19925;-64
2023/10/04 14:22:00;;;;;;;;;;;;;;;;;;5032197;28;20003;-64
2023/10/04 14:24:27;;;;;;;;;;;;;;;;;;5032209;28;19933;-64
2023/10/04 14:26:57;;;;;;;;;;;;;;;;;;5032241;28;19971;-64
2023/10/04 14:29:23;;;;;;;;;;;;;;;;;;5031148;28;19925;-64
2023/10/04 14:31:48;;;;;;;;;;;;;;;;;;5031837;28;20317;-64
2023/10/04 14:34:15;;;;;;;;;;;;;;;;;;5032273;28;19925;-64
2023/10/04 14:36:41;;;;;;;;;;;;;;;;;;5033202;28;19925;-64
2023/10/04 14:39:08;;;;;;;;;;;;;;;;;;5036041;28;19959;-64
2023/10/04 14:41:34;;;;;;;;;;;;;;;;;;5035984;28;20287;-64
2023/10/04 14:44:00;;;;;;;;;;;;;;;;;;5035851;28;19928;-64
2023/10/04 14:46:26;;;;;;;;;;;;;;;;;;5035672;28;19929;-64
2023/10/04 14:48:51;;;;;;;;;;;;;;;;;;5036040;28;19964;-64
2023/10/04 14:51:17;;;;;;;;;;;;;;;;;;5035848;28;19921;-64
2023/10/04 14:53:43;;;;;;;;;;;;;;;;;;5035943;28;19971;-64
2023/10/04 14:56:09;;;;;;;;;;;;;;;;;;5033907;28;20386;-64
2023/10/04 14:58:35;;;;;;;;;;;;;;;;;;5035006;28;19996;-64
2023/10/04 15:01:07;;;;;;;;;;;;;;;;;;5034963;28;19920;-64
2023/10/04 15:03:33;;;;;;;;;;;;;;;;;;5035152;28;20364;-64
2023/10/04 15:05:59;;;;;;;;;;;;;;;;;;5034773;28;19971;-64
2023/10/04 15:08:25;;;;;;;;;;;;;;;;;;5034644;28;19944;-63
2023/10/04 15:10:51;;;;;;;;;;;;;;;;;;5032904;28;20462;-64
2023/10/04 15:13:17;;;;;;;;;;;;;;;;;;5034465;28;19925;-64
2023/10/04 15:15:43;;;;;;;;;;;;;;;;;;5034885;28;20056;-64
2023/10/04 15:18:09;;;;;;;;;;;;;;;;;;5034368;28;20016;-64
2023/10/04 15:20:35;;;;;;;;;;;;;;;;;;5034848;28;19921;-64
2023/10/04 15:23:12;;;;;;;;;;;;;;;;;;5035026;28;19925;-64
2023/10/04 15:25:41;;;;;;;;;;;;;;;;;;5035023;28;20414;-64
2023/10/04 15:28:13;;;;;;;;;;;;;;;;;;5035046;28;19925;-64
2023/10/04 15:30:39;;;;;;;;;;;;;;;;;;5044224;28;19927;-64
2023/10/04 15:33:05;;;;;;;;;;;;;;;;;;5055240;28;19921;-63
2023/10/04 15:35:31;;;;;;;;;;;;;;;;;;5054953;28;19924;-63
2023/10/04 15:38:00;;;;;;;;;;;;;;;;;;5054498;28;19925;-64
2023/10/04 15:40:29;;;;;;;;;;;;;;;;;;5054302;28;19920;-64
2023/10/04 15:42:55;;;;;;;;;;;;;;;;;;5054083;28;19943;-64
2023/10/04 15:45:22;;;;;;;;;;;;;;;;;;5054114;28;20354;-65
2023/10/04 15:47:48;;;;;;;;;;;;;;;;;;5053099;28;20435;-65
2023/10/04 15:50:16;;;;;;;;;;;;;;;;;;5053176;28;19947;-64
2023/10/04 15:52:42;;;;;;;;;;;;;;;;;;5043931;28;19979;-64
2023/10/04 15:55:08;;;;;;;;;;;;;;;;;;5034220;28;19929;-64
2023/10/04 15:57:34;;;;;;;;;;;;;;;;;;5034780;28;20277;-64
2023/10/04 16:00:00;;;;;;;;;;;;;;;;;;5034820;28;19921;-64
2023/10/04 16:02:26;;;;;;;;;;;;;;;;;;5033581;28;19932;-64
2023/10/04 16:04:52;;;;;;;;;;;;;;;;;;5034152;28;20454;-64
2023/10/04 16:07:18;;;;;;;;;;;;;;;;;;5034256;28;19936;-64
2023/10/04 16:09:45;;;;;;;;;;;;;;;;;;5034110;28;19925;-64
2023/10/04 16:12:11;;;;;;;;;;;;;;;;;;5034441;28;19921;-64
2023/10/04 16:14:37;;;;;;;;;;;;;;;;;;5034145;28;19967;-64
2023/10/04 16:17:03;;;;;;;;;;;;;;;;;;5016424;28;19933;-64
2023/10/04 16:19:29;;;;;;;;;;;;;;;;;;5034230;28;20424;-64
2023/10/04 16:21:55;;;;;;;;;;;;;;;;;;5034055;28;19921;-64
2023/10/04 16:24:21;;;;;;;;;;;;;;;;;;5033848;28;20386;-64
2023/10/04 16:26:47;;;;;;;;;;;;;;;;;;5034205;28;19932;-64
2023/10/04 16:29:13;;;;;;;;;;;;;;;;;;5034145;28;19925;-64
2023/10/04 16:31:38;;;;;;;;;;;;;;;;;;5034109;28;20460;-64
2023/10/04 16:34:04;;;;;;;;;;;;;;;;;;5033814;28;20011;-64
2023/10/04 16:36:31;;;;;;;;;;;;;;;;;;5033779;28;19925;-64
2023/10/04 16:38:57;;;;;;;;;;;;;;;;;;5033534;28;19940;-64
2023/10/04 16:41:23;;;;;;;;;;;;;;;;;;5033631;28;19928;-64